Aviation Digital Data Service (ADDS)

Output produced by METARs form (0419 UTC 19 February 2019)
found at http://www.aviationweather.gov/metar/data/
 
Forecast for: WBGG (KUCHING (CIV/MIL, MY)
Text: TAF WBGG 182300Z 1900/2000 VRB03KT 9999 FEW015 SCT020
Forecast period: 0000 UTC 19 February 2019 to 0000 UTC 20 February 2019
Forecast type: FROM: standard forecast or significant change
Winds: variable direction winds at 3 MPH (3 knots; 1.5 m/s)
Visibility: 6 or more miles 10+ km)
Ceiling: at least 12,000 feet AGL
Clouds: few clouds at 1500 feet AGL
scattered clouds at 2000 feet AGL
Weather: no significant weather forecast for this period
Text: TEMPO 1906/1909 3000 TSRA FEW015CB
Forecast period: 0600 to 0900 UTC 19 February 2019
Forecast type: TEMPORARY: The following changes expected for less than half the time period
Visibility: 1.86 miles (2.99 km)
Ceiling: at least 12,000 feet AGL
Clouds: few clouds at 1500 feet AGL
Weather: TSRA  (rain associated with thunderstorm(s))